sensor_id;sensor_type;location;lat;lon;timestamp;P1;durP1;ratioP1;P2;durP2;ratioP2
20069;SDS011;10195;50.868;4.382;2023-07-29T00:01:27;5.20;;;2.20;;
20069;SDS011;10195;50.868;4.382;2023-07-29T00:03:52;2.38;;;1.88;;
20069;SDS011;10195;50.868;4.382;2023-07-29T00:06:18;2.83;;;2.28;;
20069;SDS011;10195;50.868;4.382;2023-07-29T00:08:44;2.90;;;1.80;;
20069;SDS011;10195;50.868;4.382;2023-07-29T00:11:09;2.30;;;1.50;;
20069;SDS011;10195;50.868;4.382;2023-07-29T00:13:35;3.13;;;1.98;;
20069;SDS011;10195;50.868;4.382;2023-07-29T00:16:00;1.95;;;1.70;;
20069;SDS011;10195;50.868;4.382;2023-07-29T00:18:26;2.35;;;1.48;;
20069;SDS011;10195;50.868;4.382;2023-07-29T00:20:52;1.60;;;1.50;;
20069;SDS011;10195;50.868;4.382;2023-07-29T00:23:18;4.55;;;1.60;;
20069;SDS011;10195;50.868;4.382;2023-07-29T00:25:44;2.60;;;1.75;;
20069;SDS011;10195;50.868;4.382;2023-07-29T00:28:11;3.28;;;1.60;;
20069;SDS011;10195;50.868;4.382;2023-07-29T00:30:37;4.40;;;1.95;;
20069;SDS011;10195;50.868;4.382;2023-07-29T00:33:02;2.13;;;1.50;;
20069;SDS011;10195;50.868;4.382;2023-07-29T00:35:28;1.92;;;1.50;;
20069;SDS011;10195;50.868;4.382;2023-07-29T00:37:54;2.40;;;1.50;;
20069;SDS011;10195;50.868;4.382;2023-07-29T00:40:20;5.13;;;1.85;;
20069;SDS011;10195;50.868;4.382;2023-07-29T00:42:47;2.25;;;1.77;;
20069;SDS011;10195;50.868;4.382;2023-07-29T00:45:13;9.07;;;1.88;;
20069;SDS011;10195;50.868;4.382;2023-07-29T00:47:39;3.58;;;2.10;;
20069;SDS011;10195;50.868;4.382;2023-07-29T00:50:05;3.42;;;1.70;;
20069;SDS011;10195;50.868;4.382;2023-07-29T00:52:32;2.83;;;1.70;;
20069;SDS011;10195;50.868;4.382;2023-07-29T00:54:57;2.08;;;1.65;;
20069;SDS011;10195;50.868;4.382;2023-07-29T00:57:23;2.28;;;1.60;;
20069;SDS011;10195;50.868;4.382;2023-07-29T00:59:50;2.15;;;1.75;;
20069;SDS011;10195;50.868;4.382;2023-07-29T01:02:16;2.47;;;1.58;;
20069;SDS011;10195;50.868;4.382;2023-07-29T01:04:42;2.45;;;1.40;;
20069;SDS011;10195;50.868;4.382;2023-07-29T01:10:10;2.85;;;1.50;;
20069;SDS011;10195;50.868;4.382;2023-07-29T01:16:14;2.53;;;1.63;;
20069;SDS011;10195;50.868;4.382;2023-07-29T01:18:23;4.55;;;1.80;;
20069;SDS011;10195;50.868;4.382;2023-07-29T01:20:53;4.18;;;1.50;;
20069;SDS011;10195;50.868;4.382;2023-07-29T01:23:24;4.50;;;1.80;;
20069;SDS011;10195;50.868;4.382;2023-07-29T01:25:50;4.47;;;1.90;;
20069;SDS011;10195;50.868;4.382;2023-07-29T01:28:16;2.50;;;1.65;;
20069;SDS011;10195;50.868;4.382;2023-07-29T01:30:42;1.85;;;1.55;;
20069;SDS011;10195;50.868;4.382;2023-07-29T01:38:50;4.07;;;1.98;;
20069;SDS011;10195;50.868;4.382;2023-07-29T01:41:09;2.80;;;1.70;;
20069;SDS011;10195;50.868;4.382;2023-07-29T01:43:35;4.03;;;2.03;;
20069;SDS011;10195;50.868;4.382;2023-07-29T01:46:08;3.30;;;2.20;;
20069;SDS011;10195;50.868;4.382;2023-07-29T01:48:36;3.65;;;2.10;;
20069;SDS011;10195;50.868;4.382;2023-07-29T01:51:01;3.35;;;2.20;;
20069;SDS011;10195;50.868;4.382;2023-07-29T01:53:27;4.28;;;2.17;;
20069;SDS011;10195;50.868;4.382;2023-07-29T01:55:52;3.60;;;1.95;;
20069;SDS011;10195;50.868;4.382;2023-07-29T01:58:18;2.85;;;2.00;;
20069;SDS011;10195;50.868;4.382;2023-07-29T02:00:44;5.60;;;1.98;;
20069;SDS011;10195;50.868;4.382;2023-07-29T02:03:09;5.65;;;2.10;;
20069;SDS011;10195;50.868;4.382;2023-07-29T02:05:35;3.67;;;1.95;;
20069;SDS011;10195;50.868;4.382;2023-07-29T02:08:00;5.40;;;2.20;;
20069;SDS011;10195;50.868;4.382;2023-07-29T02:10:26;3.30;;;1.98;;
20069;SDS011;10195;50.868;4.382;2023-07-29T02:12:52;4.40;;;2.05;;
20069;SDS011;10195;50.868;4.382;2023-07-29T02:15:17;3.65;;;1.88;;
20069;SDS011;10195;50.868;4.382;2023-07-29T02:17:43;2.00;;;1.80;;
20069;SDS011;10195;50.868;4.382;2023-07-29T02:20:09;4.45;;;2.10;;
20069;SDS011;10195;50.868;4.382;2023-07-29T02:22:35;3.17;;;2.00;;
20069;SDS011;10195;50.868;4.382;2023-07-29T02:25:01;3.70;;;1.88;;
20069;SDS011;10195;50.868;4.382;2023-07-29T02:27:27;5.00;;;2.15;;
20069;SDS011;10195;50.868;4.382;2023-07-29T02:29:53;3.40;;;2.00;;
20069;SDS011;10195;50.868;4.382;2023-07-29T02:32:19;5.07;;;2.05;;
20069;SDS011;10195;50.868;4.382;2023-07-29T02:34:45;4.38;;;2.03;;
20069;SDS011;10195;50.868;4.382;2023-07-29T02:37:11;4.30;;;2.30;;
20069;SDS011;10195;50.868;4.382;2023-07-29T02:39:38;4.03;;;2.10;;
20069;SDS011;10195;50.868;4.382;2023-07-29T02:42:03;3.38;;;2.20;;
20069;SDS011;10195;50.868;4.382;2023-07-29T02:44:29;2.72;;;1.95;;
20069;SDS011;10195;50.868;4.382;2023-07-29T02:46:55;3.20;;;1.90;;
20069;SDS011;10195;50.868;4.382;2023-07-29T02:49:21;2.60;;;1.92;;
20069;SDS011;10195;50.868;4.382;2023-07-29T02:51:48;6.35;;;2.50;;
20069;SDS011;10195;50.868;4.382;2023-07-29T02:54:13;2.38;;;2.00;;
20069;SDS011;10195;50.868;4.382;2023-07-29T02:56:39;4.63;;;1.90;;
20069;SDS011;10195;50.868;4.382;2023-07-29T02:59:04;4.45;;;2.30;;
20069;SDS011;10195;50.868;4.382;2023-07-29T03:01:30;3.00;;;1.75;;
20069;SDS011;10195;50.868;4.382;2023-07-29T03:03:56;8.10;;;1.90;;
20069;SDS011;10195;50.868;4.382;2023-07-29T03:06:22;2.65;;;1.92;;
20069;SDS011;10195;50.868;4.382;2023-07-29T03:08:47;2.05;;;1.80;;
20069;SDS011;10195;50.868;4.382;2023-07-29T03:11:14;4.50;;;1.92;;
20069;SDS011;10195;50.868;4.382;2023-07-29T03:13:40;4.10;;;2.00;;
20069;SDS011;10195;50.868;4.382;2023-07-29T03:16:07;3.28;;;1.95;;
20069;SDS011;10195;50.868;4.382;2023-07-29T03:18:34;4.18;;;1.70;;
20069;SDS011;10195;50.868;4.382;2023-07-29T03:21:00;5.20;;;2.25;;
20069;SDS011;10195;50.868;4.382;2023-07-29T03:23:30;4.32;;;2.13;;
20069;SDS011;10195;50.868;4.382;2023-07-29T03:25:57;3.42;;;2.03;;
20069;SDS011;10195;50.868;4.382;2023-07-29T03:28:24;3.00;;;1.88;;
20069;SDS011;10195;50.868;4.382;2023-07-29T03:30:52;4.15;;;1.88;;
20069;SDS011;10195;50.868;4.382;2023-07-29T03:33:21;2.60;;;2.05;;
20069;SDS011;10195;50.868;4.382;2023-07-29T03:35:47;3.97;;;2.13;;
20069;SDS011;10195;50.868;4.382;2023-07-29T03:38:12;4.60;;;1.90;;
20069;SDS011;10195;50.868;4.382;2023-07-29T03:40:39;5.30;;;1.77;;
20069;SDS011;10195;50.868;4.382;2023-07-29T03:43:05;4.43;;;2.25;;
20069;SDS011;10195;50.868;4.382;2023-07-29T03:45:31;4.25;;;2.03;;
20069;SDS011;10195;50.868;4.382;2023-07-29T03:47:57;2.42;;;2.03;;
20069;SDS011;10195;50.868;4.382;2023-07-29T03:50:23;3.53;;;2.30;;
20069;SDS011;10195;50.868;4.382;2023-07-29T03:52:49;6.35;;;2.47;;
20069;SDS011;10195;50.868;4.382;2023-07-29T03:55:15;5.00;;;2.22;;
20069;SDS011;10195;50.868;4.382;2023-07-29T03:57:40;4.18;;;2.28;;
20069;SDS011;10195;50.868;4.382;2023-07-29T04:00:06;3.45;;;2.20;;
20069;SDS011;10195;50.868;4.382;2023-07-29T04:02:32;3.67;;;2.10;;
20069;SDS011;10195;50.868;4.382;2023-07-29T04:04:58;3.13;;;2.10;;
20069;SDS011;10195;50.868;4.382;2023-07-29T04:07:23;3.42;;;2.00;;
20069;SDS011;10195;50.868;4.382;2023-07-29T04:09:49;2.50;;;1.73;;
20069;SDS011;10195;50.868;4.382;2023-07-29T04:12:15;2.42;;;1.98;;
20069;SDS011;10195;50.868;4.382;2023-07-29T04:14:41;2.95;;;1.92;;
20069;SDS011;10195;50.868;4.382;2023-07-29T04:17:07;3.33;;;2.13;;
20069;SDS011;10195;50.868;4.382;2023-07-29T04:19:32;4.45;;;1.80;;
20069;SDS011;10195;50.868;4.382;2023-07-29T04:21:58;4.35;;;2.20;;
20069;SDS011;10195;50.868;4.382;2023-07-29T04:24:24;4.25;;;2.00;;
20069;SDS011;10195;50.868;4.382;2023-07-29T04:26:50;3.10;;;2.03;;
20069;SDS011;10195;50.868;4.382;2023-07-29T04:29:16;4.70;;;1.80;;
20069;SDS011;10195;50.868;4.382;2023-07-29T04:31:41;3.63;;;2.00;;
20069;SDS011;10195;50.868;4.382;2023-07-29T04:34:07;4.05;;;1.90;;
20069;SDS011;10195;50.868;4.382;2023-07-29T04:36:34;1.90;;;1.58;;
20069;SDS011;10195;50.868;4.382;2023-07-29T04:39:00;3.45;;;2.03;;
20069;SDS011;10195;50.868;4.382;2023-07-29T04:41:25;2.45;;;1.80;;
20069;SDS011;10195;50.868;4.382;2023-07-29T04:43:51;2.92;;;1.73;;
20069;SDS011;10195;50.868;4.382;2023-07-29T04:46:17;3.15;;;1.98;;
20069;SDS011;10195;50.868;4.382;2023-07-29T04:48:43;2.70;;;1.63;;
20069;SDS011;10195;50.868;4.382;2023-07-29T04:51:08;4.45;;;2.00;;
20069;SDS011;10195;50.868;4.382;2023-07-29T04:53:34;2.85;;;2.08;;
20069;SDS011;10195;50.868;4.382;2023-07-29T04:56:01;3.47;;;2.00;;
20069;SDS011;10195;50.868;4.382;2023-07-29T04:58:27;2.58;;;1.67;;
20069;SDS011;10195;50.868;4.382;2023-07-29T05:00:54;5.35;;;2.00;;
20069;SDS011;10195;50.868;4.382;2023-07-29T05:03:20;4.85;;;1.98;;
20069;SDS011;10195;50.868;4.382;2023-07-29T05:05:46;5.05;;;2.03;;
20069;SDS011;10195;50.868;4.382;2023-07-29T05:08:12;4.60;;;2.25;;
20069;SDS011;10195;50.868;4.382;2023-07-29T05:10:38;2.67;;;1.90;;
20069;SDS011;10195;50.868;4.382;2023-07-29T05:13:03;4.80;;;1.90;;
20069;SDS011;10195;50.868;4.382;2023-07-29T05:15:29;4.20;;;1.80;;
20069;SDS011;10195;50.868;4.382;2023-07-29T05:17:55;3.25;;;1.70;;
20069;SDS011;10195;50.868;4.382;2023-07-29T05:20:21;3.22;;;1.60;;
20069;SDS011;10195;50.868;4.382;2023-07-29T05:22:46;2.85;;;1.70;;
20069;SDS011;10195;50.868;4.382;2023-07-29T05:25:12;4.72;;;1.67;;
20069;SDS011;10195;50.868;4.382;2023-07-29T05:27:37;4.40;;;2.20;;
20069;SDS011;10195;50.868;4.382;2023-07-29T05:30:03;4.70;;;1.60;;
20069;SDS011;10195;50.868;4.382;2023-07-29T05:32:29;2.95;;;1.73;;
20069;SDS011;10195;50.868;4.382;2023-07-29T05:34:55;3.47;;;1.67;;
20069;SDS011;10195;50.868;4.382;2023-07-29T05:37:20;2.08;;;1.40;;
20069;SDS011;10195;50.868;4.382;2023-07-29T05:39:46;2.15;;;1.60;;
20069;SDS011;10195;50.868;4.382;2023-07-29T05:42:12;4.15;;;1.73;;
20069;SDS011;10195;50.868;4.382;2023-07-29T05:44:37;3.60;;;1.67;;
20069;SDS011;10195;50.868;4.382;2023-07-29T05:47:03;1.58;;;1.45;;
20069;SDS011;10195;50.868;4.382;2023-07-29T05:49:29;2.90;;;1.70;;
20069;SDS011;10195;50.868;4.382;2023-07-29T05:51:54;2.33;;;1.60;;
20069;SDS011;10195;50.868;4.382;2023-07-29T05:54:21;6.10;;;1.60;;
20069;SDS011;10195;50.868;4.382;2023-07-29T05:56:47;1.77;;;1.60;;
20069;SDS011;10195;50.868;4.382;2023-07-29T05:59:12;3.90;;;1.50;;
20069;SDS011;10195;50.868;4.382;2023-07-29T06:01:38;3.33;;;1.25;;
20069;SDS011;10195;50.868;4.382;2023-07-29T06:04:04;2.70;;;1.70;;
20069;SDS011;10195;50.868;4.382;2023-07-29T06:06:29;2.88;;;1.45;;
20069;SDS011;10195;50.868;4.382;2023-07-29T06:08:55;3.80;;;1.45;;
20069;SDS011;10195;50.868;4.382;2023-07-29T06:11:21;2.28;;;1.40;;
20069;SDS011;10195;50.868;4.382;2023-07-29T06:13:47;4.38;;;1.60;;
20069;SDS011;10195;50.868;4.382;2023-07-29T06:16:13;2.38;;;1.50;;
20069;SDS011;10195;50.868;4.382;2023-07-29T06:18:38;5.28;;;1.50;;
20069;SDS011;10195;50.868;4.382;2023-07-29T06:21:04;2.40;;;1.20;;
20069;SDS011;10195;50.868;4.382;2023-07-29T06:23:32;1.73;;;1.13;;
20069;SDS011;10195;50.868;4.382;2023-07-29T06:25:59;1.10;;;1.00;;
20069;SDS011;10195;50.868;4.382;2023-07-29T06:28:25;2.45;;;1.15;;
20069;SDS011;10195;50.868;4.382;2023-07-29T06:30:51;1.85;;;1.15;;
20069;SDS011;10195;50.868;4.382;2023-07-29T06:33:17;1.85;;;1.30;;
20069;SDS011;10195;50.868;4.382;2023-07-29T06:35:43;2.35;;;1.38;;
20069;SDS011;10195;50.868;4.382;2023-07-29T06:38:09;3.45;;;1.23;;
20069;SDS011;10195;50.868;4.382;2023-07-29T06:40:34;2.50;;;1.23;;
20069;SDS011;10195;50.868;4.382;2023-07-29T06:43:00;3.15;;;1.33;;
20069;SDS011;10195;50.868;4.382;2023-07-29T06:45:26;5.63;;;1.33;;
20069;SDS011;10195;50.868;4.382;2023-07-29T06:47:51;6.18;;;1.35;;
20069;SDS011;10195;50.868;4.382;2023-07-29T06:50:17;2.85;;;1.27;;
20069;SDS011;10195;50.868;4.382;2023-07-29T06:52:43;4.40;;;1.20;;
20069;SDS011;10195;50.868;4.382;2023-07-29T06:55:08;1.90;;;1.17;;
20069;SDS011;10195;50.868;4.382;2023-07-29T06:57:34;1.63;;;1.17;;
20069;SDS011;10195;50.868;4.382;2023-07-29T07:00:00;4.25;;;1.10;;
20069;SDS011;10195;50.868;4.382;2023-07-29T07:02:26;4.43;;;1.02;;
20069;SDS011;10195;50.868;4.382;2023-07-29T07:04:51;2.20;;;1.20;;
20069;SDS011;10195;50.868;4.382;2023-07-29T07:07:17;4.30;;;1.30;;
20069;SDS011;10195;50.868;4.382;2023-07-29T07:09:43;3.53;;;1.55;;
20069;SDS011;10195;50.868;4.382;2023-07-29T07:12:08;4.72;;;1.27;;
20069;SDS011;10195;50.868;4.382;2023-07-29T07:14:34;1.95;;;1.30;;
20069;SDS011;10195;50.868;4.382;2023-07-29T07:16:59;2.97;;;1.45;;
20069;SDS011;10195;50.868;4.382;2023-07-29T07:19:25;1.98;;;1.25;;
20069;SDS011;10195;50.868;4.382;2023-07-29T07:21:51;2.63;;;1.40;;
20069;SDS011;10195;50.868;4.382;2023-07-29T07:24:17;2.28;;;1.50;;
20069;SDS011;10195;50.868;4.382;2023-07-29T07:26:42;2.70;;;1.20;;
20069;SDS011;10195;50.868;4.382;2023-07-29T07:29:08;2.92;;;1.60;;
20069;SDS011;10195;50.868;4.382;2023-07-29T07:31:33;1.90;;;1.30;;
20069;SDS011;10195;50.868;4.382;2023-07-29T07:34:00;4.63;;;1.60;;
20069;SDS011;10195;50.868;4.382;2023-07-29T07:36:27;3.80;;;1.45;;
20069;SDS011;10195;50.868;4.382;2023-07-29T07:38:53;3.30;;;1.40;;
20069;SDS011;10195;50.868;4.382;2023-07-29T07:41:18;3.22;;;1.60;;
20069;SDS011;10195;50.868;4.382;2023-07-29T07:43:44;2.90;;;1.30;;
20069;SDS011;10195;50.868;4.382;2023-07-29T07:46:09;3.60;;;1.58;;
20069;SDS011;10195;50.868;4.382;2023-07-29T07:48:35;3.15;;;1.33;;
20069;SDS011;10195;50.868;4.382;2023-07-29T07:51:09;4.03;;;1.50;;
20069;SDS011;10195;50.868;4.382;2023-07-29T07:53:36;3.33;;;1.40;;
20069;SDS011;10195;50.868;4.382;2023-07-29T07:56:01;4.55;;;1.38;;
20069;SDS011;10195;50.868;4.382;2023-07-29T07:58:27;5.22;;;1.25;;
20069;SDS011;10195;50.868;4.382;2023-07-29T08:01:00;2.05;;;1.17;;
20069;SDS011;10195;50.868;4.382;2023-07-29T08:03:33;1.70;;;1.25;;
20069;SDS011;10195;50.868;4.382;2023-07-29T08:05:59;2.70;;;1.27;;
20069;SDS011;10195;50.868;4.382;2023-07-29T08:08:25;3.65;;;1.17;;
20069;SDS011;10195;50.868;4.382;2023-07-29T08:10:55;3.38;;;1.58;;
20069;SDS011;10195;50.868;4.382;2023-07-29T08:13:22;1.98;;;1.17;;
20069;SDS011;10195;50.868;4.382;2023-07-29T08:15:49;13.75;;;3.33;;
20069;SDS011;10195;50.868;4.382;2023-07-29T08:18:16;3.03;;;1.38;;
20069;SDS011;10195;50.868;4.382;2023-07-29T08:23:38;3.17;;;1.13;;
20069;SDS011;10195;50.868;4.382;2023-07-29T08:26:04;1.73;;;1.20;;
20069;SDS011;10195;50.868;4.382;2023-07-29T08:28:34;3.80;;;0.85;;
20069;SDS011;10195;50.868;4.382;2023-07-29T08:31:01;1.92;;;1.05;;
20069;SDS011;10195;50.868;4.382;2023-07-29T08:33:27;1.55;;;1.00;;
20069;SDS011;10195;50.868;4.382;2023-07-29T08:35:54;4.43;;;1.13;;
20069;SDS011;10195;50.868;4.382;2023-07-29T08:38:20;5.90;;;1.60;;
20069;SDS011;10195;50.868;4.382;2023-07-29T08:40:54;1.90;;;1.10;;
20069;SDS011;10195;50.868;4.382;2023-07-29T08:43:28;3.55;;;1.15;;
20069;SDS011;10195;50.868;4.382;2023-07-29T08:45:56;2.20;;;0.93;;
20069;SDS011;10195;50.868;4.382;2023-07-29T08:48:24;6.38;;;1.48;;
20069;SDS011;10195;50.868;4.382;2023-07-29T08:51:11;7.47;;;1.20;;
20069;SDS011;10195;50.868;4.382;2023-07-29T08:53:37;3.03;;;1.30;;
20069;SDS011;10195;50.868;4.382;2023-07-29T08:56:03;1.20;;;1.10;;
20069;SDS011;10195;50.868;4.382;2023-07-29T08:58:30;2.08;;;1.42;;
20069;SDS011;10195;50.868;4.382;2023-07-29T09:00:56;2.13;;;1.00;;
20069;SDS011;10195;50.868;4.382;2023-07-29T09:03:22;1.75;;;1.30;;
20069;SDS011;10195;50.868;4.382;2023-07-29T09:05:48;4.40;;;1.35;;
20069;SDS011;10195;50.868;4.382;2023-07-29T09:08:14;4.35;;;1.20;;
20069;SDS011;10195;50.868;4.382;2023-07-29T09:10:39;2.88;;;1.30;;
20069;SDS011;10195;50.868;4.382;2023-07-29T09:13:05;4.85;;;1.55;;
20069;SDS011;10195;50.868;4.382;2023-07-29T09:15:33;2.60;;;1.48;;
20069;SDS011;10195;50.868;4.382;2023-07-29T09:17:59;9.10;;;1.42;;
20069;SDS011;10195;50.868;4.382;2023-07-29T09:20:37;4.80;;;1.60;;
20069;SDS011;10195;50.868;4.382;2023-07-29T09:23:03;3.20;;;1.30;;
20069;SDS011;10195;50.868;4.382;2023-07-29T09:25:31;11.48;;;2.42;;
20069;SDS011;10195;50.868;4.382;2023-07-29T09:28:00;1.90;;;1.15;;
20069;SDS011;10195;50.868;4.382;2023-07-29T09:30:32;5.57;;;1.50;;
20069;SDS011;10195;50.868;4.382;2023-07-29T09:32:58;2.97;;;1.40;;
20069;SDS011;10195;50.868;4.382;2023-07-29T09:35:25;2.28;;;1.55;;
20069;SDS011;10195;50.868;4.382;2023-07-29T09:37:53;1.95;;;1.38;;
20069;SDS011;10195;50.868;4.382;2023-07-29T09:40:19;3.35;;;1.40;;
20069;SDS011;10195;50.868;4.382;2023-07-29T09:42:51;2.47;;;1.45;;
20069;SDS011;10195;50.868;4.382;2023-07-29T09:45:25;1.63;;;1.45;;
20069;SDS011;10195;50.868;4.382;2023-07-29T09:47:56;3.28;;;1.40;;
20069;SDS011;10195;50.868;4.382;2023-07-29T09:50:23;2.72;;;1.70;;
20069;SDS011;10195;50.868;4.382;2023-07-29T09:52:50;3.25;;;1.55;;
20069;SDS011;10195;50.868;4.382;2023-07-29T09:55:17;3.17;;;1.50;;
20069;SDS011;10195;50.868;4.382;2023-07-29T09:57:44;4.07;;;1.70;;
20069;SDS011;10195;50.868;4.382;2023-07-29T10:00:10;6.00;;;1.60;;
20069;SDS011;10195;50.868;4.382;2023-07-29T10:02:40;3.15;;;1.55;;
20069;SDS011;10195;50.868;4.382;2023-07-29T10:05:08;4.05;;;1.60;;
20069;SDS011;10195;50.868;4.382;2023-07-29T10:07:36;10.70;;;1.55;;
20069;SDS011;10195;50.868;4.382;2023-07-29T10:10:03;2.10;;;1.60;;
20069;SDS011;10195;50.868;4.382;2023-07-29T10:12:33;1.65;;;1.35;;
20069;SDS011;10195;50.868;4.382;2023-07-29T10:15:01;2.25;;;1.50;;
20069;SDS011;10195;50.868;4.382;2023-07-29T10:17:33;3.92;;;1.50;;
20069;SDS011;10195;50.868;4.382;2023-07-29T10:20:01;2.25;;;1.35;;
20069;SDS011;10195;50.868;4.382;2023-07-29T10:22:28;2.25;;;1.25;;
20069;SDS011;10195;50.868;4.382;2023-07-29T10:24:59;1.50;;;1.25;;
20069;SDS011;10195;50.868;4.382;2023-07-29T10:27:57;3.72;;;1.20;;
20069;SDS011;10195;50.868;4.382;2023-07-29T10:30:30;1.95;;;1.60;;
20069;SDS011;10195;50.868;4.382;2023-07-29T10:32:57;3.75;;;1.42;;
20069;SDS011;10195;50.868;4.382;2023-07-29T10:35:24;1.60;;;1.40;;
20069;SDS011;10195;50.868;4.382;2023-07-29T10:37:50;1.92;;;1.55;;
20069;SDS011;10195;50.868;4.382;2023-07-29T10:40:18;6.55;;;2.28;;
20069;SDS011;10195;50.868;4.382;2023-07-29T10:43:00;7.47;;;2.45;;
20069;SDS011;10195;50.868;4.382;2023-07-29T10:45:36;3.90;;;2.22;;
20069;SDS011;10195;50.868;4.382;2023-07-29T10:50:35;8.55;;;2.83;;
20069;SDS011;10195;50.868;4.382;2023-07-29T10:53:01;6.22;;;2.70;;
20069;SDS011;10195;50.868;4.382;2023-07-29T10:55:34;5.47;;;2.90;;
20069;SDS011;10195;50.868;4.382;2023-07-29T10:58:07;5.63;;;3.10;;
20069;SDS011;10195;50.868;4.382;2023-07-29T11:00:34;9.45;;;2.92;;
20069;SDS011;10195;50.868;4.382;2023-07-29T11:03:01;9.02;;;3.30;;
20069;SDS011;10195;50.868;4.382;2023-07-29T11:05:46;3.63;;;2.55;;
20069;SDS011;10195;50.868;4.382;2023-07-29T11:08:24;5.80;;;3.15;;
20069;SDS011;10195;50.868;4.382;2023-07-29T11:11:05;6.88;;;3.30;;
20069;SDS011;10195;50.868;4.382;2023-07-29T11:13:33;6.05;;;2.78;;
20069;SDS011;10195;50.868;4.382;2023-07-29T11:16:00;3.47;;;3.00;;
20069;SDS011;10195;50.868;4.382;2023-07-29T11:18:27;4.70;;;2.70;;
20069;SDS011;10195;50.868;4.382;2023-07-29T11:20:58;4.35;;;2.72;;
20069;SDS011;10195;50.868;4.382;2023-07-29T11:23:29;3.53;;;2.60;;
20069;SDS011;10195;50.868;4.382;2023-07-29T11:26:00;3.38;;;2.50;;
20069;SDS011;10195;50.868;4.382;2023-07-29T11:28:26;3.92;;;2.40;;
20069;SDS011;10195;50.868;4.382;2023-07-29T11:30:53;5.93;;;2.58;;
20069;SDS011;10195;50.868;4.382;2023-07-29T11:33:21;4.63;;;2.20;;
20069;SDS011;10195;50.868;4.382;2023-07-29T11:35:48;3.33;;;2.28;;
20069;SDS011;10195;50.868;4.382;2023-07-29T11:38:15;3.33;;;2.00;;
20069;SDS011;10195;50.868;4.382;2023-07-29T11:40:42;1.70;;;1.60;;
20069;SDS011;10195;50.868;4.382;2023-07-29T11:43:08;3.90;;;1.80;;
20069;SDS011;10195;50.868;4.382;2023-07-29T11:45:34;5.00;;;2.00;;
20069;SDS011;10195;50.868;4.382;2023-07-29T11:48:03;2.63;;;1.80;;
20069;SDS011;10195;50.868;4.382;2023-07-29T11:50:28;2.15;;;1.80;;
20069;SDS011;10195;50.868;4.382;2023-07-29T11:52:54;3.30;;;1.90;;
20069;SDS011;10195;50.868;4.382;2023-07-29T11:55:20;5.82;;;1.70;;
20069;SDS011;10195;50.868;4.382;2023-07-29T11:57:46;2.30;;;1.70;;
20069;SDS011;10195;50.868;4.382;2023-07-29T12:00:16;2.47;;;1.80;;
20069;SDS011;10195;50.868;4.382;2023-07-29T12:02:43;2.10;;;1.40;;
20069;SDS011;10195;50.868;4.382;2023-07-29T12:05:10;1.70;;;1.60;;
20069;SDS011;10195;50.868;4.382;2023-07-29T12:07:38;2.17;;;1.70;;
20069;SDS011;10195;50.868;4.382;2023-07-29T12:10:04;4.85;;;2.35;;
20069;SDS011;10195;50.868;4.382;2023-07-29T12:12:31;4.00;;;2.47;;
20069;SDS011;10195;50.868;4.382;2023-07-29T12:14:57;5.68;;;2.50;;
20069;SDS011;10195;50.868;4.382;2023-07-29T12:17:23;3.58;;;2.20;;
20069;SDS011;10195;50.868;4.382;2023-07-29T12:19:48;2.85;;;1.92;;
20069;SDS011;10195;50.868;4.382;2023-07-29T12:22:17;2.38;;;1.98;;
20069;SDS011;10195;50.868;4.382;2023-07-29T12:24:44;4.20;;;2.28;;
20069;SDS011;10195;50.868;4.382;2023-07-29T12:27:11;4.70;;;2.25;;
20069;SDS011;10195;50.868;4.382;2023-07-29T12:29:41;3.15;;;2.05;;
20069;SDS011;10195;50.868;4.382;2023-07-29T12:32:08;3.28;;;2.20;;
20069;SDS011;10195;50.868;4.382;2023-07-29T12:34:34;4.50;;;2.55;;
20069;SDS011;10195;50.868;4.382;2023-07-29T12:37:02;5.90;;;2.40;;
20069;SDS011;10195;50.868;4.382;2023-07-29T12:39:29;6.13;;;2.35;;
20069;SDS011;10195;50.868;4.382;2023-07-29T12:41:59;6.25;;;2.67;;
20069;SDS011;10195;50.868;4.382;2023-07-29T12:44:29;4.53;;;2.70;;
20069;SDS011;10195;50.868;4.382;2023-07-29T12:46:56;2.90;;;2.55;;
20069;SDS011;10195;50.868;4.382;2023-07-29T12:49:22;2.95;;;2.30;;
20069;SDS011;10195;50.868;4.382;2023-07-29T12:51:47;2.90;;;2.25;;
20069;SDS011;10195;50.868;4.382;2023-07-29T12:54:13;2.88;;;2.58;;
20069;SDS011;10195;50.868;4.382;2023-07-29T12:56:39;3.03;;;2.40;;
20069;SDS011;10195;50.868;4.382;2023-07-29T12:59:05;2.30;;;2.10;;
20069;SDS011;10195;50.868;4.382;2023-07-29T13:01:30;2.97;;;1.98;;
20069;SDS011;10195;50.868;4.382;2023-07-29T13:03:56;8.88;;;2.25;;
20069;SDS011;10195;50.868;4.382;2023-07-29T13:06:22;3.88;;;2.20;;
20069;SDS011;10195;50.868;4.382;2023-07-29T13:08:48;4.60;;;1.90;;
20069;SDS011;10195;50.868;4.382;2023-07-29T13:11:14;1.80;;;1.70;;
20069;SDS011;10195;50.868;4.382;2023-07-29T13:13:41;4.72;;;1.75;;
20069;SDS011;10195;50.868;4.382;2023-07-29T13:16:07;4.70;;;1.85;;
20069;SDS011;10195;50.868;4.382;2023-07-29T13:18:33;3.38;;;2.05;;
20069;SDS011;10195;50.868;4.382;2023-07-29T13:20:58;2.25;;;1.85;;
20069;SDS011;10195;50.868;4.382;2023-07-29T13:23:25;1.95;;;1.80;;
20069;SDS011;10195;50.868;4.382;2023-07-29T13:25:51;2.08;;;1.90;;
20069;SDS011;10195;50.868;4.382;2023-07-29T13:28:17;3.97;;;1.77;;
20069;SDS011;10195;50.868;4.382;2023-07-29T13:30:43;1.80;;;1.70;;
20069;SDS011;10195;50.868;4.382;2023-07-29T13:33:09;2.08;;;1.88;;
20069;SDS011;10195;50.868;4.382;2023-07-29T13:35:35;4.50;;;2.25;;
20069;SDS011;10195;50.868;4.382;2023-07-29T13:38:01;2.03;;;1.70;;
20069;SDS011;10195;50.868;4.382;2023-07-29T13:40:27;2.22;;;1.70;;
20069;SDS011;10195;50.868;4.382;2023-07-29T13:42:53;2.78;;;1.60;;
20069;SDS011;10195;50.868;4.382;2023-07-29T13:45:20;4.72;;;1.92;;
20069;SDS011;10195;50.868;4.382;2023-07-29T13:47:46;3.17;;;2.03;;
20069;SDS011;10195;50.868;4.382;2023-07-29T13:50:11;3.10;;;1.70;;
20069;SDS011;10195;50.868;4.382;2023-07-29T13:52:37;2.50;;;2.00;;
20069;SDS011;10195;50.868;4.382;2023-07-29T13:55:03;4.90;;;1.92;;
20069;SDS011;10195;50.868;4.382;2023-07-29T13:57:30;3.28;;;1.60;;
20069;SDS011;10195;50.868;4.382;2023-07-29T13:59:55;1.90;;;1.67;;
20069;SDS011;10195;50.868;4.382;2023-07-29T14:02:21;2.55;;;2.00;;
20069;SDS011;10195;50.868;4.382;2023-07-29T14:04:47;2.33;;;1.70;;
20069;SDS011;10195;50.868;4.382;2023-07-29T14:07:12;1.73;;;1.40;;
20069;SDS011;10195;50.868;4.382;2023-07-29T14:09:38;3.78;;;1.70;;
20069;SDS011;10195;50.868;4.382;2023-07-29T14:12:04;1.60;;;1.35;;
20069;SDS011;10195;50.868;4.382;2023-07-29T14:14:30;1.92;;;1.50;;
20069;SDS011;10195;50.868;4.382;2023-07-29T14:16:56;5.20;;;1.42;;
20069;SDS011;10195;50.868;4.382;2023-07-29T14:19:22;1.80;;;1.40;;
20069;SDS011;10195;50.868;4.382;2023-07-29T14:21:48;4.75;;;1.50;;
20069;SDS011;10195;50.868;4.382;2023-07-29T14:24:14;2.15;;;1.85;;
20069;SDS011;10195;50.868;4.382;2023-07-29T14:26:42;2.20;;;1.85;;
20069;SDS011;10195;50.868;4.382;2023-07-29T14:29:08;3.20;;;1.70;;
20069;SDS011;10195;50.868;4.382;2023-07-29T14:31:34;3.70;;;1.90;;
20069;SDS011;10195;50.868;4.382;2023-07-29T14:33:59;1.50;;;1.40;;
20069;SDS011;10195;50.868;4.382;2023-07-29T14:36:25;1.52;;;1.42;;
20069;SDS011;10195;50.868;4.382;2023-07-29T14:38:51;1.65;;;1.48;;
20069;SDS011;10195;50.868;4.382;2023-07-29T14:41:17;2.85;;;1.85;;
20069;SDS011;10195;50.868;4.382;2023-07-29T14:43:42;2.30;;;1.25;;
20069;SDS011;10195;50.868;4.382;2023-07-29T14:46:08;1.85;;;1.30;;
20069;SDS011;10195;50.868;4.382;2023-07-29T14:48:34;2.03;;;1.40;;
20069;SDS011;10195;50.868;4.382;2023-07-29T14:50:59;6.38;;;1.83;;
20069;SDS011;10195;50.868;4.382;2023-07-29T14:53:25;5.80;;;1.52;;
20069;SDS011;10195;50.868;4.382;2023-07-29T14:55:51;2.30;;;1.30;;
20069;SDS011;10195;50.868;4.382;2023-07-29T14:58:16;3.60;;;1.70;;
20069;SDS011;10195;50.868;4.382;2023-07-29T15:00:42;4.30;;;2.03;;
20069;SDS011;10195;50.868;4.382;2023-07-29T15:03:08;5.28;;;2.10;;